Time;durP1;ratioP1;P1;durP2;ratioP2;P2;SDS_P1;SDS_P2;PMS_P1;PMS_P2;Temp;Humidity;BMP_temperature;BMP_pressure;BME280_temperature;BME280_humidity;BME280_pressure;Samples;Min_cycle;Max_cycle;Signal;HPM_P1;HPM_P2
2023/07/06 01:39:42;;;;;;;;;;;;;;;17.76;55.63;99958.94;1086070;54;19950;-82
2023/07/06 01:40:46;;;;;;;;;;;;;;;17.72;55.95;99957.66;1086620;47;20034;-82
2023/07/06 01:42:10;;;;;;;;;;;;;;;17.69;56.49;99960.75;1087229;47;19946;-81
2023/07/06 01:43:10;;;;;;;;;;;;;;;17.66;56.50;99961.97;1087051;47;19938;-82
2023/07/06 01:44:16;;;;;;;;;;;;;;;17.65;56.95;99954.91;1087353;47;19938;-81
2023/07/06 01:45:18;;;;;;;;;;;;;;;17.68;56.79;99964.47;1087136;54;19946;-82
2023/07/06 01:46:22;;;;;;;;;;;;;;;17.69;56.51;99961.59;1087227;47;19964;-83
2023/07/06 01:47:23;;;;;;;;;;;;;;;17.70;57.19;99952.47;1087519;47;20499;-83
2023/07/06 01:48:27;;;;;;;;;;;;;;;17.69;57.77;99958.91;1087287;47;19939;-82
2023/07/06 01:49:31;;;;;;;;;;;;;;;17.61;57.82;99959.84;1087207;54;19942;-82
2023/07/06 01:50:41;;;;;;;;;;;;;;;17.56;57.58;99959.59;1087308;47;19946;-82
2023/07/06 01:51:49;;;;;;;;;;;;;;;17.49;57.82;99953.28;1087398;47;19939;-82
2023/07/06 01:53:00;;;;;;;;;;;;;;;17.43;59.01;99956.75;1087449;54;19968;-84
2023/07/06 01:54:05;;;;;;;;;;;;;;;17.45;58.90;99960.13;1087364;47;19950;-84
2023/07/06 01:55:15;;;;;;;;;;;;;;;17.45;59.11;99965.53;1088119;39;20547;-82
2023/07/06 01:56:21;;;;;;;;;;;;;;;17.42;58.32;99961.34;1087270;54;19967;-83
2023/07/06 01:57:35;;;;;;;;;;;;;;;17.45;58.08;99963.63;1087013;47;19938;-83
2023/07/06 01:58:43;;;;;;;;;;;;;;;17.48;58.25;99961.59;1088454;39;20534;-83
2023/07/06 01:59:49;;;;;;;;;;;;;;;17.51;57.80;99959.34;1086731;47;19998;-82
2023/07/06 02:00:55;;;;;;;;;;;;;;;17.53;57.93;99962.69;1087297;39;20549;-82
2023/07/06 02:02:01;;;;;;;;;;;;;;;17.55;57.45;99957.94;1086521;54;19966;-83
2023/07/06 02:03:05;;;;;;;;;;;;;;;17.60;57.49;99962.75;1086744;47;19977;-82
2023/07/06 02:04:10;;;;;;;;;;;;;;;17.64;57.57;99952.41;1086968;47;19961;-82
2023/07/06 02:05:13;;;;;;;;;;;;;;;17.65;57.41;99959.47;1086716;54;19950;-82
2023/07/06 02:06:17;;;;;;;;;;;;;;;17.64;57.57;99955.09;1087196;54;19927;-83
2023/07/06 02:07:20;;;;;;;;;;;;;;;17.66;57.75;99961.16;1087188;54;20061;-82
2023/07/06 02:08:23;;;;;;;;;;;;;;;17.64;57.59;99957.81;1087289;54;19949;-82
2023/07/06 02:09:24;;;;;;;;;;;;;;;17.65;57.66;99962.19;1087129;47;19969;-82
2023/07/06 02:10:30;;;;;;;;;;;;;;;17.66;57.41;99953.03;1086912;47;19946;-81
2023/07/06 02:11:39;;;;;;;;;;;;;;;17.68;57.03;99959.06;1086968;46;19939;-83
2023/07/06 02:12:42;;;;;;;;;;;;;;;17.71;56.90;99953.28;1087122;47;19954;-82
2023/07/06 02:13:43;;;;;;;;;;;;;;;17.72;56.99;99960.38;1087294;54;19942;-82
2023/07/06 02:14:48;;;;;;;;;;;;;;;17.73;56.89;99954.75;1087306;54;19974;-82
2023/07/06 02:15:49;;;;;;;;;;;;;;;17.76;56.52;99956.22;1087118;54;20086;-82
2023/07/06 02:16:54;;;;;;;;;;;;;;;17.76;56.93;99959.78;1086923;47;19976;-82
2023/07/06 02:17:55;;;;;;;;;;;;;;;17.72;57.47;99953.09;1087015;46;19972;-83
2023/07/06 02:18:59;;;;;;;;;;;;;;;17.70;57.47;99951.59;1086889;54;19947;-82
2023/07/06 02:20:00;;;;;;;;;;;;;;;17.71;56.97;99953.28;1087051;54;20004;-82
2023/07/06 02:21:04;;;;;;;;;;;;;;;17.69;56.81;99949.94;1086899;54;19957;-83
2023/07/06 02:22:05;;;;;;;;;;;;;;;17.70;56.86;99960.56;1087112;54;19967;-82
2023/07/06 02:23:11;;;;;;;;;;;;;;;17.71;57.02;99958.69;1086475;39;20381;-81
2023/07/06 02:24:12;;;;;;;;;;;;;;;17.72;56.91;99955.78;1085921;47;19976;-81
2023/07/06 02:25:15;;;;;;;;;;;;;;;17.72;56.91;99950.38;1082434;47;20542;-81
2023/07/06 02:26:17;;;;;;;;;;;;;;;17.72;57.29;99949.56;1082652;47;19950;-81
2023/07/06 02:27:23;;;;;;;;;;;;;;;17.72;57.26;99952.25;1083265;54;19953;-80
2023/07/06 02:28:25;;;;;;;;;;;;;;;17.71;56.89;99954.09;1083012;54;19957;-80
2023/07/06 02:29:29;;;;;;;;;;;;;;;17.72;57.30;99952.25;1082902;54;20453;-80
2023/07/06 02:30:32;;;;;;;;;;;;;;;17.70;57.27;99957.00;1082727;54;19971;-78
2023/07/06 02:31:36;;;;;;;;;;;;;;;17.70;57.18;99952.47;1082261;46;19939;-80
2023/07/06 02:32:39;;;;;;;;;;;;;;;17.70;57.49;99954.31;1082093;54;20540;-78
2023/07/06 08:33:35;;;;;;;;;;;;;;;24.35;36.49;100015.25;1087282;54;19938;-88
2023/07/06 08:34:37;;;;;;;;;;;;;;;24.34;36.43;100012.72;1086925;54;19942;-87
2023/07/06 08:35:43;;;;;;;;;;;;;;;24.50;36.39;100009.31;1086957;47;19938;-87
2023/07/06 08:36:43;;;;;;;;;;;;;;;24.63;35.72;100013.69;1086875;54;19942;-87
2023/07/06 08:37:47;;;;;;;;;;;;;;;24.77;35.92;100012.38;1087047;47;19962;-91
2023/07/06 08:38:48;;;;;;;;;;;;;;;24.94;35.70;100019.00;1086979;54;19966;-87
2023/07/06 08:39:53;;;;;;;;;;;;;;;25.05;35.63;100013.50;1087398;39;20239;-88
2023/07/06 08:40:54;;;;;;;;;;;;;;;25.18;35.43;100012.41;1087111;54;20888;-86
2023/07/06 08:41:58;;;;;;;;;;;;;;;25.16;35.35;100011.84;1087076;54;20034;-88
2023/07/06 08:43:00;;;;;;;;;;;;;;;25.32;34.68;100007.47;1086937;47;19946;-89
2023/07/06 08:44:04;;;;;;;;;;;;;;;25.13;34.67;100016.97;1086966;47;19939;-87
2023/07/06 08:45:14;;;;;;;;;;;;;;;25.17;34.70;100009.91;1087927;47;19939;-85
2023/07/06 08:46:25;;;;;;;;;;;;;;;25.30;34.42;100006.91;1090799;39;20218;-85
2023/07/06 08:47:32;;;;;;;;;;;;;;;25.39;34.35;100007.34;1087013;47;19939;-87
2023/07/06 08:48:38;;;;;;;;;;;;;;;25.58;34.81;100009.91;1087186;47;19945;-88
2023/07/06 08:49:43;;;;;;;;;;;;;;;25.47;34.40;100008.91;1087153;54;19966;-87
2023/07/06 08:50:48;;;;;;;;;;;;;;;25.00;35.22;100007.09;1086828;54;19943;-87
2023/07/06 08:51:51;;;;;;;;;;;;;;;24.91;35.28;100004.75;1086846;47;20868;-88
2023/07/06 08:52:56;;;;;;;;;;;;;;;24.81;35.23;100012.72;1086788;47;19990;-89
2023/07/06 08:54:00;;;;;;;;;;;;;;;24.49;35.62;100012.25;1087257;39;20702;-86
2023/07/06 08:55:03;;;;;;;;;;;;;;;24.73;35.40;100013.94;1087030;54;20001;-87
2023/07/06 08:56:08;;;;;;;;;;;;;;;24.47;35.80;100006.22;1086858;54;19943;-88
2023/07/06 08:57:15;;;;;;;;;;;;;;;24.33;36.16;100020.09;1087128;54;19946;-89
2023/07/06 08:58:21;;;;;;;;;;;;;;;24.61;36.01;100010.34;1087143;47;19938;-87
2023/07/06 08:59:32;;;;;;;;;;;;;;;24.88;35.30;100002.53;1087121;54;19949;-87
2023/07/06 09:00:32;;;;;;;;;;;;;;;24.94;35.19;100002.63;1087079;47;19938;-87
2023/07/06 09:01:37;;;;;;;;;;;;;;;25.01;35.15;99997.84;1087024;54;19943;-88
2023/07/06 09:02:39;;;;;;;;;;;;;;;25.07;34.82;100005.91;1087251;47;19939;-88
2023/07/06 09:03:47;;;;;;;;;;;;;;;25.10;34.90;99998.28;1087026;54;19942;-87
2023/07/06 09:04:49;;;;;;;;;;;;;;;25.00;34.85;99999.75;1087745;39;20743;-87
2023/07/06 09:05:53;;;;;;;;;;;;;;;25.05;34.38;99999.03;1086871;54;20074;-87
2023/07/06 09:06:57;;;;;;;;;;;;;;;24.88;34.23;100002.53;1087281;39;20793;-86
2023/07/06 09:08:00;;;;;;;;;;;;;;;25.12;33.67;100002.44;1086971;47;19950;-88
2023/07/06 09:09:01;;;;;;;;;;;;;;;25.33;33.55;100000.94;1086888;54;19967;-87
2023/07/06 09:10:13;;;;;;;;;;;;;;;25.59;33.47;99990.53;1087072;47;19939;-88
2023/07/06 09:11:14;;;;;;;;;;;;;;;25.36;32.56;99995.00;1086932;47;19945;-87
2023/07/06 09:12:20;;;;;;;;;;;;;;;25.02;33.08;99992.16;1086933;54;20764;-87
2023/07/06 09:13:28;;;;;;;;;;;;;;;25.43;33.02;99986.66;1087270;54;19939;-87
2023/07/06 09:14:42;;;;;;;;;;;;;;;25.60;32.42;99986.69;1087204;54;19939;-87
2023/07/06 09:15:54;;;;;;;;;;;;;;;25.56;32.58;99981.94;1086928;54;20970;-86
2023/07/06 09:17:06;;;;;;;;;;;;;;;25.78;32.61;99988.38;1087251;54;19943;-87
2023/07/06 09:18:14;;;;;;;;;;;;;;;25.30;33.05;99982.28;1087166;54;19939;-88
2023/07/06 09:19:27;;;;;;;;;;;;;;;24.88;33.76;99996.19;1087031;54;19939;-88
2023/07/06 09:20:34;;;;;;;;;;;;;;;24.80;33.45;99988.38;1087138;54;19939;-89
2023/07/06 09:21:47;;;;;;;;;;;;;;;24.98;33.47;99990.94;1087243;54;19938;-88
2023/07/06 09:22:54;;;;;;;;;;;;;;;25.03;33.53;99985.56;1087168;54;19939;-87
2023/07/06 09:24:04;;;;;;;;;;;;;;;25.16;33.38;99991.84;1087093;54;19951;-88
2023/07/06 09:25:15;;;;;;;;;;;;;;;25.58;32.73;99988.00;1087022;54;19939;-87
2023/07/06 09:26:26;;;;;;;;;;;;;;;25.82;32.62;99984.09;1086963;54;19946;-89
2023/07/06 09:27:34;;;;;;;;;;;;;;;25.81;32.61;99979.69;1086973;54;21050;-88
2023/07/06 09:28:38;;;;;;;;;;;;;;;25.97;32.64;99986.25;1086988;47;19991;-86
2023/07/06 09:29:55;;;;;;;;;;;;;;;26.12;32.29;99980.19;1086962;54;19938;-88
2023/07/06 09:31:09;;;;;;;;;;;;;;;26.22;32.06;99987.75;1086979;54;19939;-87
2023/07/06 09:32:13;;;;;;;;;;;;;;;26.40;31.69;99983.09;1087040;47;19939;-87
2023/07/06 09:33:19;;;;;;;;;;;;;;;26.49;31.92;99983.50;1087121;54;20983;-88
2023/07/06 09:34:29;;;;;;;;;;;;;;;26.40;31.14;99974.88;1086995;54;19949;-88
2023/07/06 09:35:33;;;;;;;;;;;;;;;26.71;31.46;99980.78;1086491;54;19966;-87
2023/07/06 09:36:34;;;;;;;;;;;;;;;26.29;30.83;99988.41;1086985;54;19966;-86
2023/07/06 09:37:46;;;;;;;;;;;;;;;25.82;31.31;99994.19;1087010;54;19968;-86
2023/07/06 09:38:48;;;;;;;;;;;;;;;25.57;31.61;99998.13;1086908;47;19963;-89
2023/07/06 09:39:59;;;;;;;;;;;;;;;25.35;32.23;99987.84;1087065;47;20002;-88
2023/07/06 09:41:01;;;;;;;;;;;;;;;25.10;32.61;99992.81;1087141;54;19950;-87
2023/07/06 09:42:05;;;;;;;;;;;;;;;24.91;32.76;99987.53;1087005;54;19968;-87
2023/07/06 09:43:15;;;;;;;;;;;;;;;25.10;33.07;99990.09;1086995;54;19943;-88
2023/07/06 09:44:24;;;;;;;;;;;;;;;25.61;32.52;99988.34;1086934;54;19942;-87
2023/07/06 09:45:25;;;;;;;;;;;;;;;26.11;31.80;99978.56;1087117;47;19968;-86
2023/07/06 09:46:31;;;;;;;;;;;;;;;26.54;31.32;99980.81;1087470;39;21083;-87
2023/07/06 09:47:33;;;;;;;;;;;;;;;26.91;30.56;99982.97;1086977;47;19938;-87
2023/07/06 09:48:37;;;;;;;;;;;;;;;26.96;29.83;99976.72;1086965;47;20875;-88
2023/07/06 09:49:48;;;;;;;;;;;;;;;26.68;30.60;99982.13;1086907;54;19938;-87
2023/07/06 09:51:00;;;;;;;;;;;;;;;26.85;30.34;100000.47;1087037;54;19939;-86
2023/07/06 09:52:10;;;;;;;;;;;;;;;26.97;29.93;99987.44;1087029;54;19950;-87
2023/07/06 09:53:26;;;;;;;;;;;;;;;27.08;30.20;99991.13;1087165;54;19938;-86
2023/07/06 09:54:41;;;;;;;;;;;;;;;27.06;29.95;99990.56;1087626;54;19938;-88
2023/07/06 09:55:48;;;;;;;;;;;;;;;26.67;29.91;99988.69;1087466;54;19998;-88
2023/07/06 09:56:58;;;;;;;;;;;;;;;26.94;29.05;99993.44;1087457;54;19923;-88
2023/07/06 09:58:09;;;;;;;;;;;;;;;27.12;29.44;99978.56;1086970;54;19939;-88
2023/07/06 09:59:19;;;;;;;;;;;;;;;27.08;29.39;99986.47;1088434;39;21010;-87
2023/07/06 10:00:29;;;;;;;;;;;;;;;26.39;29.89;99993.22;1087163;54;19938;-88
2023/07/06 10:01:43;;;;;;;;;;;;;;;26.38;30.00;100001.69;1088836;39;20274;-86
2023/07/06 10:02:57;;;;;;;;;;;;;;;26.03;29.43;100002.75;1086994;54;21007;-87
2023/07/06 10:04:24;;;;;;;;;;;;;;;26.45;28.96;99997.69;1086987;54;19938;-87
2023/07/06 10:05:40;;;;;;;;;;;;;;;26.60;29.35;99994.34;1087021;54;20006;-88
2023/07/06 10:07:00;;;;;;;;;;;;;;;26.66;29.23;99998.00;1086672;54;19938;-87
2023/07/06 10:08:11;;;;;;;;;;;;;;;26.40;29.88;99997.59;1086573;54;19938;-87
2023/07/06 10:09:23;;;;;;;;;;;;;;;25.94;30.13;99992.22;1089681;39;20921;-86
2023/07/06 10:10:38;;;;;;;;;;;;;;;26.02;29.80;99993.72;1086973;54;19939;-89
2023/07/06 10:11:52;;;;;;;;;;;;;;;25.90;30.35;99988.31;1086800;54;20010;-88
2023/07/06 10:13:01;;;;;;;;;;;;;;;25.96;30.20;99992.81;1088037;39;20975;-86
2023/07/06 10:14:16;;;;;;;;;;;;;;;26.38;29.88;99993.47;1086773;54;19938;-83
2023/07/06 10:15:27;;;;;;;;;;;;;;;26.35;29.47;99992.06;1086812;54;19950;-87
2023/07/06 10:16:44;;;;;;;;;;;;;;;26.74;28.88;99988.47;1086940;54;19938;-87
2023/07/06 10:17:56;;;;;;;;;;;;;;;26.26;29.83;99988.09;1086867;54;19939;-87
2023/07/06 10:19:11;;;;;;;;;;;;;;;26.62;29.04;99986.69;1086784;54;19938;-87
2023/07/06 10:20:21;;;;;;;;;;;;;;;26.82;28.80;99993.56;1086946;54;19939;-87
2023/07/06 10:21:38;;;;;;;;;;;;;;;26.49;29.18;99984.31;1087208;54;19978;-90
2023/07/06 10:22:56;;;;;;;;;;;;;;;26.66;29.09;99987.03;1087097;54;20038;-87
2023/07/06 10:24:12;;;;;;;;;;;;;;;26.88;29.06;99980.72;1086747;54;19938;-86
2023/07/06 10:25:23;;;;;;;;;;;;;;;27.17;28.64;99989.59;1086846;54;19938;-85
2023/07/06 10:26:35;;;;;;;;;;;;;;;27.41;28.25;99981.06;1087196;54;20968;-85
2023/07/06 10:27:44;;;;;;;;;;;;;;;27.25;28.49;99988.31;1091431;39;20928;-87
2023/07/06 10:28:58;;;;;;;;;;;;;;;27.52;28.33;99988.34;1087826;39;20825;-88
2023/07/06 10:30:12;;;;;;;;;;;;;;;27.84;27.79;99987.56;1087587;54;19938;-88
2023/07/06 10:31:25;;;;;;;;;;;;;;;27.94;27.50;99978.56;1087804;54;19990;-86
2023/07/06 10:32:36;;;;;;;;;;;;;;;27.89;27.91;99980.44;1087610;54;19939;-86
2023/07/06 10:33:50;;;;;;;;;;;;;;;28.15;27.34;99985.06;1087413;54;19938;-86
2023/07/06 10:35:00;;;;;;;;;;;;;;;28.07;27.58;99987.47;1087542;54;19939;-86
2023/07/06 16:01:49;;;;;;;;;;;;;;;27.62;23.53;99822.94;1086991;54;19947;-83
2023/07/06 16:02:52;;;;;;;;;;;;;;;27.61;23.77;99831.41;1087476;54;19965;-83
2023/07/06 16:04:00;;;;;;;;;;;;;;;27.47;24.20;99829.13;1087170;47;19942;-79
2023/07/06 16:05:04;;;;;;;;;;;;;;;27.53;24.20;99836.31;1088129;39;20710;-81
2023/07/06 16:06:09;;;;;;;;;;;;;;;27.33;23.95;99825.97;1086911;47;19939;-81
2023/07/06 16:07:10;;;;;;;;;;;;;;;27.28;23.92;99833.34;1087003;47;19938;-80
2023/07/06 16:08:23;;;;;;;;;;;;;;;27.24;24.07;99833.84;1086884;47;19939;-80
2023/07/06 16:09:25;;;;;;;;;;;;;;;27.33;23.95;99831.47;1086920;46;19939;-84
2023/07/06 16:10:28;;;;;;;;;;;;;;;27.37;23.80;99827.09;1086904;54;19967;-82
2023/07/06 16:11:30;;;;;;;;;;;;;;;27.40;23.86;99831.22;1087101;54;19967;-81
2023/07/06 16:12:33;;;;;;;;;;;;;;;27.43;23.71;99833.47;1087467;39;21158;-81
2023/07/06 16:13:35;;;;;;;;;;;;;;;27.31;24.18;99836.38;1087054;46;19969;-80
2023/07/06 16:14:38;;;;;;;;;;;;;;;27.10;24.44;99832.63;1086998;47;19965;-82
2023/07/06 16:15:39;;;;;;;;;;;;;;;27.13;24.13;99832.09;1088004;39;20893;-81
2023/07/06 16:16:46;;;;;;;;;;;;;;;27.17;24.16;99830.50;1086912;54;19948;-83
2023/07/06 16:17:47;;;;;;;;;;;;;;;27.25;24.31;99824.53;1086880;47;19963;-85
2023/07/06 16:18:50;;;;;;;;;;;;;;;27.36;24.46;99830.09;1086995;47;19950;-80
2023/07/06 16:19:51;;;;;;;;;;;;;;;27.41;24.17;99830.13;1086890;46;19939;-81
2023/07/06 16:21:01;;;;;;;;;;;;;;;27.43;24.34;99830.72;1086958;54;19942;-80
2023/07/06 16:22:02;;;;;;;;;;;;;;;27.39;24.00;99835.88;1086967;47;20084;-81
2023/07/06 16:23:07;;;;;;;;;;;;;;;27.40;24.09;99829.31;1086897;47;20782;-80
2023/07/06 16:24:18;;;;;;;;;;;;;;;;;;;;;
2023/07/06 16:25:33;;;;;;;;;;;;;;;27.44;24.33;99832.38;1087142;54;19987;-80
2023/07/06 16:26:33;;;;;;;;;;;;;;;27.46;24.33;99832.97;1086965;47;20016;-79
2023/07/06 16:27:37;;;;;;;;;;;;;;;27.55;24.28;99836.88;1090457;39;20245;-79
2023/07/06 16:28:38;;;;;;;;;;;;;;;27.63;24.04;99831.97;1088885;39;20244;-83
2023/07/06 16:29:41;;;;;;;;;;;;;;;27.52;24.80;99839.31;1086965;54;19968;-81
2023/07/06 16:30:42;;;;;;;;;;;;;;;27.54;24.49;99834.38;1086919;47;19950;-80
2023/07/06 16:31:48;;;;;;;;;;;;;;;27.48;24.75;99839.03;1086896;47;19965;-83
2023/07/06 16:32:49;;;;;;;;;;;;;;;27.35;24.50;99833.94;1086913;54;19967;-80
2023/07/06 16:33:52;;;;;;;;;;;;;;;27.39;24.38;99830.41;1086901;46;19938;-79
2023/07/06 16:34:53;;;;;;;;;;;;;;;27.10;24.77;99838.13;1086942;54;19950;-79
2023/07/06 16:35:56;;;;;;;;;;;;;;;27.02;25.05;99842.16;1088409;39;20911;-79
2023/07/06 16:37:00;;;;;;;;;;;;;;;26.98;25.00;99840.19;1087008;46;20018;-79
2023/07/06 16:38:01;;;;;;;;;;;;;;;27.05;24.75;99836.16;1086956;54;19957;-79
2023/07/06 16:39:04;;;;;;;;;;;;;;;27.11;24.79;99836.19;1086934;54;19943;-80
2023/07/06 16:40:06;;;;;;;;;;;;;;;27.17;24.62;99838.72;1086972;54;19950;-80
2023/07/06 16:41:10;;;;;;;;;;;;;;;27.29;24.65;99841.28;1087090;54;19966;-80
2023/07/06 16:42:13;;;;;;;;;;;;;;;27.28;24.35;99838.81;1086886;54;19973;-80
2023/07/06 16:43:18;;;;;;;;;;;;;;;27.33;24.50;99831.47;1087099;54;19942;-81
2023/07/06 16:44:18;;;;;;;;;;;;;;;27.31;24.83;99833.63;1086775;47;19942;-83
2023/07/06 16:45:22;;;;;;;;;;;;;;;27.21;24.87;99831.59;1087059;47;19954;-80
2023/07/06 16:46:23;;;;;;;;;;;;;;;27.08;24.93;99843.84;1087060;47;19950;-79
2023/07/06 16:47:29;;;;;;;;;;;;;;;27.19;25.10;99832.97;1087098;54;19978;-79
2023/07/06 16:48:43;;;;;;;;;;;;;;;27.21;24.86;99839.84;1087386;54;19965;-83
2023/07/06 16:49:46;;;;;;;;;;;;;;;27.34;25.00;99840.50;1086997;47;19946;-79
2023/07/06 16:50:49;;;;;;;;;;;;;;;27.31;24.86;99832.78;1087149;54;19954;-83
2023/07/06 16:51:52;;;;;;;;;;;;;;;27.17;24.57;99837.88;1087364;54;20685;-81
2023/07/06 16:52:53;;;;;;;;;;;;;;;27.18;24.83;99845.88;1087102;47;19942;-79
2023/07/06 16:53:57;;;;;;;;;;;;;;;27.27;25.18;99837.97;1087573;39;20664;-81
2023/07/06 16:54:57;;;;;;;;;;;;;;;27.31;24.92;99827.31;1087354;54;19942;-81
2023/07/06 16:56:01;;;;;;;;;;;;;;;27.05;24.85;99840.78;1087372;54;20710;-89
2023/07/06 16:57:02;;;;;;;;;;;;;;;26.92;24.96;99842.03;1087135;47;19950;-83
2023/07/06 16:58:06;;;;;;;;;;;;;;;27.05;24.81;99844.38;1088016;39;20060;-83
2023/07/06 16:59:06;;;;;;;;;;;;;;;27.18;24.60;99837.63;1087222;47;20639;-82
2023/07/06 17:00:10;;;;;;;;;;;;;;;27.17;24.80;99835.97;1087093;54;19957;-80
2023/07/06 17:01:12;;;;;;;;;;;;;;;27.21;24.87;99834.34;1087024;54;19966;-79
2023/07/06 17:02:15;;;;;;;;;;;;;;;27.24;24.78;99838.50;1087172;54;20003;-79
2023/07/06 17:03:19;;;;;;;;;;;;;;;27.32;24.76;99842.69;1087127;54;19938;-81
2023/07/06 17:04:22;;;;;;;;;;;;;;;27.25;24.86;99841.00;1087121;47;19949;-83
2023/07/06 17:05:23;;;;;;;;;;;;;;;27.28;25.04;99839.63;1087103;47;19949;-83
2023/07/06 17:06:27;;;;;;;;;;;;;;;27.11;24.90;99844.41;1086957;54;19942;-83
2023/07/06 17:07:28;;;;;;;;;;;;;;;27.17;24.68;99840.63;1087022;47;20019;-84
2023/07/06 17:08:31;;;;;;;;;;;;;;;27.14;24.84;99839.22;1087201;54;19950;-84
2023/07/06 17:09:32;;;;;;;;;;;;;;;27.04;24.98;99850.94;1087042;47;19949;-84
2023/07/06 17:10:37;;;;;;;;;;;;;;;27.02;25.23;99846.78;1087091;47;20026;-83
2023/07/06 17:11:39;;;;;;;;;;;;;;;26.88;25.12;99843.63;1087035;47;19954;-85
2023/07/06 17:12:40;;;;;;;;;;;;;;;26.67;25.27;99848.03;1087036;54;19943;-83
2023/07/06 17:13:43;;;;;;;;;;;;;;;26.74;25.40;99843.19;1086967;47;19943;-85
2023/07/06 17:14:44;;;;;;;;;;;;;;;26.69;25.24;99843.94;1086975;47;19942;-83
2023/07/06 17:15:50;;;;;;;;;;;;;;;26.81;25.34;99841.13;1087074;47;19942;-84
2023/07/06 17:16:50;;;;;;;;;;;;;;;26.90;25.29;99845.06;1087076;54;19954;-82
2023/07/06 17:17:55;;;;;;;;;;;;;;;26.85;25.48;99853.22;1087031;47;19949;-85
2023/07/06 17:18:59;;;;;;;;;;;;;;;26.68;25.42;99846.97;1087882;46;19961;-83
2023/07/06 17:32:36;;;;;;;;;;;;;;;26.26;26.63;99851.94;1070862;54;20709;31
2023/07/06 17:36:18;;;;;;;;;;;;;;;26.38;26.27;99849.09;1071097;54;19946;31
2023/07/06 17:39:59;;;;;;;;;;;;;;;26.26;26.55;99857.41;1074715;54;20439;31
2023/07/06 17:42:08;;;;;;;;;;;;;;;26.26;26.39;99854.66;1071081;54;20017;31
2023/07/06 17:45:39;;;;;;;;;;;;;;;26.52;26.28;99862.38;1071281;54;20717;31
2023/07/06 17:46:44;;;;;;;;;;;;;;;26.22;26.31;99866.38;1071109;46;20740;31
2023/07/06 17:50:14;;;;;;;;;;;;;;;25.91;26.79;99861.28;1087944;54;19942;-88
2023/07/06 17:52:39;;;;;;;;;;;;;;;26.07;26.44;99867.00;1075825;54;20927;31
2023/07/06 17:53:45;;;;;;;;;;;;;;;26.10;26.51;99861.03;1071312;47;19954;31
2023/07/06 17:55:53;;;;;;;;;;;;;;;25.89;26.77;99863.44;1070938;54;20025;31
2023/07/06 17:59:31;;;;;;;;;;;;;;;25.99;26.58;99869.06;1088512;54;19938;-89
2023/07/06 18:01:40;;;;;;;;;;;;;;;25.80;26.82;99857.56;1071090;54;20823;31
2023/07/06 18:04:08;;;;;;;;;;;;;;;25.85;27.00;99863.09;1081684;54;19935;31
2023/07/06 18:08:15;;;;;;;;;;;;;;;25.69;27.06;99853.00;1078335;54;21572;31
2023/07/06 18:10:40;;;;;;;;;;;;;;;25.89;27.29;99868.91;1074356;39;21310;31
2023/07/06 18:11:41;;;;;;;;;;;;;;;25.83;27.23;99867.19;1074951;54;19926;31
2023/07/06 18:12:46;;;;;;;;;;;;;;;25.89;27.11;99859.88;1074728;39;21391;31
2023/07/06 18:14:58;;;;;;;;;;;;;;;25.82;27.30;99860.03;1072067;54;21425;31
2023/07/06 18:16:00;;;;;;;;;;;;;;;25.76;27.25;99863.78;1071345;54;19987;31
2023/07/06 18:17:05;;;;;;;;;;;;;;;25.64;27.33;99859.22;1071446;54;19954;31
2023/07/06 18:18:07;;;;;;;;;;;;;;;25.62;27.67;99855.91;1071394;47;19950;31
2023/07/06 18:19:12;;;;;;;;;;;;;;;25.72;27.65;99857.16;1071618;46;20716;31
2023/07/06 18:20:15;;;;;;;;;;;;;;;25.73;27.56;99864.28;1072034;39;21043;31
2023/07/06 18:21:25;;;;;;;;;;;;;;;25.68;27.47;99862.28;1074632;39;21355;31
2023/07/06 18:23:33;;;;;;;;;;;;;;;25.66;27.43;99854.34;1089320;54;19931;-89
2023/07/06 18:25:46;;;;;;;;;;;;;;;25.68;27.40;99871.34;1089264;46;19930;-84
2023/07/06 18:27:53;;;;;;;;;;;;;;;25.73;27.38;99864.28;1071463;54;20783;31
2023/07/06 18:28:55;;;;;;;;;;;;;;;25.74;27.26;99860.47;1071600;47;20930;31
2023/07/06 18:30:05;;;;;;;;;;;;;;;25.75;27.46;99867.59;1071929;54;20644;31
2023/07/06 18:31:06;;;;;;;;;;;;;;;25.68;27.57;99863.16;1072776;39;20249;31
2023/07/06 18:32:13;;;;;;;;;;;;;;;25.72;27.49;99865.38;1071089;46;20819;31
2023/07/06 18:33:16;;;;;;;;;;;;;;;25.80;27.20;99864.94;1071303;54;19962;31
2023/07/06 18:34:20;;;;;;;;;;;;;;;25.79;27.38;99871.53;1071546;46;21052;31
2023/07/06 18:35:22;;;;;;;;;;;;;;;25.80;27.30;99873.16;1071301;47;19977;31
2023/07/06 18:38:31;;;;;;;;;;;;;;;25.68;27.76;99863.16;1071399;46;20882;31
2023/07/06 18:40:57;;;;;;;;;;;;;;;25.75;27.78;99868.44;1071150;54;20344;31
2023/07/06 18:42:00;;;;;;;;;;;;;;;25.77;27.83;99865.47;1071426;46;20881;31
2023/07/06 18:43:06;;;;;;;;;;;;;;;25.70;27.89;99871.09;1071381;54;19946;31
2023/07/06 18:44:09;;;;;;;;;;;;;;;25.72;27.81;99868.09;1071447;46;20672;31
2023/07/06 18:45:14;;;;;;;;;;;;;;;25.65;27.94;99873.72;1071630;46;20719;31
2023/07/06 18:46:17;;;;;;;;;;;;;;;25.58;28.22;99873.94;1071434;54;20272;31
2023/07/06 18:47:23;;;;;;;;;;;;;;;25.54;28.31;99873.59;1071625;46;19946;31
2023/07/06 18:48:25;;;;;;;;;;;;;;;25.49;28.39;99875.41;1071432;54;20684;31
2023/07/06 18:51:34;;;;;;;;;;;;;;;25.33;28.19;99886.03;1071542;47;19954;31
2023/07/06 18:53:41;;;;;;;;;;;;;;;25.36;28.64;99877.34;1071490;54;19950;31
2023/07/06 18:54:43;;;;;;;;;;;;;;;25.36;28.39;99888.28;1071658;46;20394;31
2023/07/06 18:55:48;;;;;;;;;;;;;;;25.41;28.50;99884.03;1071438;54;19966;31
2023/07/06 18:56:52;;;;;;;;;;;;;;;25.40;28.46;99885.09;1071258;46;19946;31
2023/07/06 18:59:02;;;;;;;;;;;;;;;25.33;28.55;99883.31;1071283;54;20787;31
2023/07/06 19:01:10;;;;;;;;;;;;;;;25.22;28.65;99895.97;1071341;54;19946;31
2023/07/06 19:03:17;;;;;;;;;;;;;;;25.16;28.67;99899.72;1071418;54;20029;31
2023/07/06 19:04:21;;;;;;;;;;;;;;;25.12;28.67;99897.72;1074713;39;21411;31
2023/07/06 19:05:26;;;;;;;;;;;;;;;25.12;29.08;99897.72;1071228;47;19946;31
2023/07/06 19:06:29;;;;;;;;;;;;;;;25.08;29.25;99898.19;1071460;46;19950;31
2023/07/06 19:07:36;;;;;;;;;;;;;;;25.11;29.41;99896.88;1071379;47;20947;31
2023/07/06 19:09:44;;;;;;;;;;;;;;;25.06;29.34;99900.34;1074352;39;21337;31
2023/07/06 19:10:47;;;;;;;;;;;;;;;25.05;29.63;99898.66;1074879;39;21306;31
2023/07/06 19:11:54;;;;;;;;;;;;;;;25.04;29.30;99907.94;1074847;39;21345;31
2023/07/06 19:12:56;;;;;;;;;;;;;;;25.01;29.27;99897.50;1071367;47;19950;31
2023/07/06 19:14:04;;;;;;;;;;;;;;;25.03;29.83;99900.00;1071447;46;20005;31
2023/07/06 19:15:10;;;;;;;;;;;;;;;25.10;29.31;99902.59;1071345;54;19985;31
2023/07/06 19:16:15;;;;;;;;;;;;;;;25.01;29.48;99902.97;1071459;54;19946;31
2023/07/06 19:17:22;;;;;;;;;;;;;;;25.10;29.35;99899.84;1071515;54;19942;31
2023/07/06 19:18:28;;;;;;;;;;;;;;;25.12;29.60;99903.19;1071377;47;19998;31
2023/07/06 19:20:35;;;;;;;;;;;;;;;25.15;29.33;99911.72;1071640;46;20673;31
2023/07/06 19:21:39;;;;;;;;;;;;;;;25.19;29.07;99909.31;1071459;46;20747;31
2023/07/06 19:22:44;;;;;;;;;;;;;;;25.13;29.55;99908.41;1071402;46;20727;31
2023/07/06 19:23:46;;;;;;;;;;;;;;;25.07;29.56;99912.13;1071351;54;19946;31
2023/07/06 19:24:53;;;;;;;;;;;;;;;25.08;29.90;99913.75;1071354;47;20640;31
2023/07/06 19:25:55;;;;;;;;;;;;;;;25.07;29.90;99918.41;1071223;54;20803;31
2023/07/06 19:28:04;;;;;;;;;;;;;;;25.07;29.67;99918.41;1088635;54;19934;-89
2023/07/06 19:29:06;;;;;;;;;;;;;;;25.09;29.81;99915.41;1073536;39;20210;31
2023/07/06 19:30:13;;;;;;;;;;;;;;;24.87;29.84;99924.31;1071371;47;21433;31
2023/07/06 19:31:18;;;;;;;;;;;;;;;24.79;29.66;99921.13;1071379;46;20050;31
2023/07/06 19:32:23;;;;;;;;;;;;;;;24.76;29.95;99917.78;1071581;46;21399;31
2023/07/06 19:34:30;;;;;;;;;;;;;;;24.65;30.19;99921.38;1071296;54;19951;31
2023/07/06 19:36:37;;;;;;;;;;;;;;;24.56;30.43;99923.63;1071620;46;20984;31
2023/07/06 19:37:40;;;;;;;;;;;;;;;24.55;30.19;99921.97;1071422;46;21003;31
2023/07/06 19:38:46;;;;;;;;;;;;;;;24.55;30.70;99921.97;1071389;46;21471;31
2023/07/06 19:40:57;;;;;;;;;;;;;;;24.54;30.41;99930.41;1071325;54;19947;31
2023/07/06 19:42:00;;;;;;;;;;;;;;;24.51;30.46;99919.97;1071456;46;21274;31
2023/07/06 19:44:06;;;;;;;;;;;;;;;24.47;30.88;99929.72;1072964;39;20214;31
2023/07/06 19:45:09;;;;;;;;;;;;;;;24.45;30.75;99935.41;1071463;46;19985;31